Time;durP1;ratioP1;P1;durP2;ratioP2;P2;SDS_P1;SDS_P2;PMS_P1;PMS_P2;Temp;Humidity;BMP_temperature;BMP_pressure;BME280_temperature;BME280_humidity;BME280_pressure;Samples;Min_cycle;Max_cycle;Signal;HPM_P1;HPM_P2
2021/10/20 00:01:38;;;;;;;4.57;4.18;;;;;;;;;;5021022;28;20203;-82
2021/10/20 00:04:04;;;;;;;4.20;3.70;;;;;;;;;;5024436;28;20183;-84
2021/10/20 00:06:30;;;;;;;4.50;4.10;;;;;;;;;;5025063;28;20182;-80
2021/10/20 00:08:57;;;;;;;6.35;4.28;;;;;;;;;;5021521;28;20230;-82
2021/10/20 00:11:23;;;;;;;6.35;4.57;;;;;;;;;;5021551;28;20174;-82
2021/10/20 00:13:49;;;;;;;5.05;4.20;;;;;;;;;;5024601;28;20197;-83
2021/10/20 00:16:16;;;;;;;4.20;3.85;;;;;;;;;;5026343;28;20186;-81
2021/10/20 00:18:47;;;;;;;4.68;3.80;;;;;;;;;;5022596;28;20176;-83
2021/10/20 00:21:13;;;;;;;4.72;4.00;;;;;;;;;;5024879;28;20262;-83
2021/10/20 00:23:39;;;;;;;5.32;4.22;;;;;;;;;;5021148;28;20178;-82
2021/10/20 00:26:05;;;;;;;5.43;4.70;;;;;;;;;;5020978;28;20188;-81
2021/10/20 00:28:31;;;;;;;3.60;3.30;;;;;;;;;;5021327;28;20432;-84
2021/10/20 00:30:57;;;;;;;4.47;4.10;;;;;;;;;;5022485;28;20497;-80
2021/10/20 00:33:23;;;;;;;7.13;4.05;;;;;;;;;;5025472;28;20439;-82
2021/10/20 00:35:49;;;;;;;4.53;4.13;;;;;;;;;;5025629;28;20199;-83
2021/10/20 00:38:15;;;;;;;4.70;4.30;;;;;;;;;;5021670;28;20230;-83
2021/10/20 00:40:41;;;;;;;5.63;4.00;;;;;;;;;;5015720;28;20446;-83
2021/10/20 00:43:07;;;;;;;4.97;4.50;;;;;;;;;;5022621;28;20494;-82
2021/10/20 00:45:35;;;;;;;4.77;3.93;;;;;;;;;;5025460;28;20281;-82
2021/10/20 00:48:01;;;;;;;4.50;4.10;;;;;;;;;;5035907;28;20443;-82
2021/10/20 00:50:27;;;;;;;7.63;4.43;;;;;;;;;;5021423;28;20206;-83
2021/10/20 00:52:53;;;;;;;4.60;3.70;;;;;;;;;;5017617;28;20445;-81
2021/10/20 00:55:19;;;;;;;4.73;4.30;;;;;;;;;;5023474;28;20871;-82
2021/10/20 00:57:46;;;;;;;5.50;4.50;;;;;;;;;;5024175;28;20981;-80
2021/10/20 01:00:12;;;;;;;4.75;4.35;;;;;;;;;;5022051;28;20185;-79
2021/10/20 01:02:40;;;;;;;5.15;4.55;;;;;;;;;;5019926;28;20182;-81
2021/10/20 01:05:06;;;;;;;4.18;3.88;;;;;;;;;;5023657;28;20179;-80
2021/10/20 01:07:32;;;;;;;4.20;3.80;;;;;;;;;;5019594;28;20183;-82
2021/10/20 01:09:58;;;;;;;4.32;3.97;;;;;;;;;;5020414;28;20194;-86
2021/10/20 01:12:24;;;;;;;5.80;4.67;;;;;;;;;;5022140;28;20193;-81
2021/10/20 01:14:50;;;;;;;4.68;4.13;;;;;;;;;;5031022;28;20425;-83
2021/10/20 01:17:16;;;;;;;5.70;4.40;;;;;;;;;;5021011;28;20210;-82
2021/10/20 01:19:43;;;;;;;4.63;4.05;;;;;;;;;;5019067;28;20441;-80
2021/10/20 01:22:09;;;;;;;4.50;4.10;;;;;;;;;;5020036;28;20187;-82
2021/10/20 01:24:35;;;;;;;4.47;4.07;;;;;;;;;;5024006;28;20213;-82
2021/10/20 01:27:02;;;;;;;4.85;4.15;;;;;;;;;;5019671;28;20193;-81
2021/10/20 01:29:28;;;;;;;5.78;4.57;;;;;;;;;;5030148;28;20237;-82
2021/10/20 01:31:56;;;;;;;5.13;4.72;;;;;;;;;;5024142;28;20201;-81
2021/10/20 01:34:22;;;;;;;5.35;3.92;;;;;;;;;;5019327;28;20187;-82
2021/10/20 01:36:49;;;;;;;4.55;3.88;;;;;;;;;;5022514;28;20210;-82
2021/10/20 01:39:15;;;;;;;4.45;4.05;;;;;;;;;;5020525;28;20175;-81
2021/10/20 01:41:42;;;;;;;4.80;4.30;;;;;;;;;;5018835;28;20174;-82
2021/10/20 01:44:08;;;;;;;4.60;4.20;;;;;;;;;;5020676;28;20241;-81
2021/10/20 01:46:34;;;;;;;4.78;4.10;;;;;;;;;;5019060;28;20191;-79
2021/10/20 01:49:00;;;;;;;4.55;4.15;;;;;;;;;;5021140;28;20246;-83
2021/10/20 01:51:26;;;;;;;5.30;4.32;;;;;;;;;;5021702;28;20294;-81
2021/10/20 01:53:53;;;;;;;4.70;4.15;;;;;;;;;;5017582;28;20190;-83
2021/10/20 01:56:19;;;;;;;4.32;4.00;;;;;;;;;;5023441;28;20179;-82
2021/10/20 01:58:45;;;;;;;4.40;4.00;;;;;;;;;;5013790;28;20186;-81
2021/10/20 02:01:11;;;;;;;5.88;4.65;;;;;;;;;;5018879;28;20258;-82
2021/10/20 02:03:38;;;;;;;6.13;4.37;;;;;;;;;;5023470;28;20187;-81
2021/10/20 02:06:05;;;;;;;5.82;4.70;;;;;;;;;;5018712;28;20445;-83
2021/10/20 02:08:32;;;;;;;5.75;4.65;;;;;;;;;;5028764;28;20277;-82
2021/10/20 02:10:58;;;;;;;5.10;4.70;;;;;;;;;;5018119;28;20179;-82
2021/10/20 02:13:24;;;;;;;5.07;4.57;;;;;;;;;;5024851;28;20525;-83
2021/10/20 02:15:50;;;;;;;5.40;5.00;;;;;;;;;;5020586;28;20221;-82
2021/10/20 02:18:16;;;;;;;5.07;4.65;;;;;;;;;;5022620;28;20699;-81
2021/10/20 02:20:42;;;;;;;5.50;5.00;;;;;;;;;;5019186;28;20187;-83
2021/10/20 02:23:09;;;;;;;5.50;4.38;;;;;;;;;;5019147;28;20425;-82
2021/10/20 02:25:34;;;;;;;5.45;5.05;;;;;;;;;;5017087;28;20287;-84
2021/10/20 02:28:00;;;;;;;5.47;4.10;;;;;;;;;;5019747;28;20187;-81
2021/10/20 02:30:26;;;;;;;4.67;4.27;;;;;;;;;;5021288;28;20232;-83
2021/10/20 02:32:53;;;;;;;5.73;5.23;;;;;;;;;;5017549;28;20446;-82
2021/10/20 02:35:19;;;;;;;4.68;4.32;;;;;;;;;;5023568;28;20414;-81
2021/10/20 02:37:46;;;;;;;5.22;4.72;;;;;;;;;;5017591;28;20218;-83
2021/10/20 02:40:13;;;;;;;5.85;5.35;;;;;;;;;;5016368;28;20183;-85
2021/10/20 02:42:40;;;;;;;5.72;5.10;;;;;;;;;;5018719;28;20190;-79
2021/10/20 02:45:07;;;;;;;5.13;4.63;;;;;;;;;;5024025;28;20236;-81
2021/10/20 02:47:33;;;;;;;5.30;4.90;;;;;;;;;;5025308;28;20233;-80
2021/10/20 02:49:58;;;;;;;5.20;4.70;;;;;;;;;;5014458;28;20182;-81
2021/10/20 02:52:24;;;;;;;4.80;4.40;;;;;;;;;;5021180;28;20236;-81
2021/10/20 02:54:50;;;;;;;6.40;5.30;;;;;;;;;;5022526;28;20449;-83
2021/10/20 02:57:16;;;;;;;5.60;5.10;;;;;;;;;;5022440;28;20475;-79
2021/10/20 02:59:43;;;;;;;6.03;5.50;;;;;;;;;;5017381;28;20440;-81
2021/10/20 03:02:09;;;;;;;5.95;5.03;;;;;;;;;;5018218;28;20598;-81
2021/10/20 03:04:35;;;;;;;5.03;4.60;;;;;;;;;;5018128;28;20178;-83
2021/10/20 03:07:01;;;;;;;6.10;5.60;;;;;;;;;;5017909;28;20446;-83
2021/10/20 03:09:27;;;;;;;5.47;4.97;;;;;;;;;;5019995;28;20426;-82
2021/10/20 03:11:53;;;;;;;7.15;5.38;;;;;;;;;;5017415;28;20782;-81
2021/10/20 03:14:19;;;;;;;5.75;5.25;;;;;;;;;;5018440;28;20632;-82
2021/10/20 03:16:45;;;;;;;8.13;4.93;;;;;;;;;;5021062;28;20217;-83
2021/10/20 03:19:11;;;;;;;5.50;5.00;;;;;;;;;;5009634;28;20437;-79
2021/10/20 03:21:37;;;;;;;5.40;5.00;;;;;;;;;;5022062;28;20429;-81
2021/10/20 03:24:03;;;;;;;5.03;4.63;;;;;;;;;;5016277;28;20473;-81
2021/10/20 03:26:29;;;;;;;5.43;4.93;;;;;;;;;;5018476;28;20421;-81
2021/10/20 03:28:55;;;;;;;5.20;4.80;;;;;;;;;;5018097;28;20192;-81
2021/10/20 03:31:21;;;;;;;5.53;5.10;;;;;;;;;;5021386;28;20433;-80
2021/10/20 03:33:47;;;;;;;6.20;5.60;;;;;;;;;;5020428;28;20456;-82
2021/10/20 03:36:14;;;;;;;6.65;5.32;;;;;;;;;;5017958;28;20640;-81
2021/10/20 03:38:40;;;;;;;5.38;4.63;;;;;;;;;;5026984;28;20620;-80
2021/10/20 03:41:06;;;;;;;5.35;4.90;;;;;;;;;;5026102;28;20198;-79
2021/10/20 03:43:32;;;;;;;5.60;5.10;;;;;;;;;;5013346;28;20170;-81
2021/10/20 03:45:57;;;;;;;5.30;4.80;;;;;;;;;;5020102;28;20509;-78
2021/10/20 03:48:23;;;;;;;6.03;5.53;;;;;;;;;;5019929;28;20449;-81
2021/10/20 03:50:49;;;;;;;5.30;4.90;;;;;;;;;;5017480;28;20421;-81
2021/10/20 03:53:15;;;;;;;6.10;5.53;;;;;;;;;;5018106;28;20412;-78
2021/10/20 03:55:42;;;;;;;6.10;5.50;;;;;;;;;;5020701;28;20444;-81
2021/10/20 03:58:08;;;;;;;6.18;5.63;;;;;;;;;;5017893;28;20462;-80
2021/10/20 04:00:34;;;;;;;6.03;5.53;;;;;;;;;;5021652;28;20178;-81
2021/10/20 04:03:00;;;;;;;6.95;5.28;;;;;;;;;;5016366;28;20448;-84
2021/10/20 04:05:26;;;;;;;5.00;4.60;;;;;;;;;;5022708;28;20182;-80
2021/10/20 04:07:52;;;;;;;5.90;5.40;;;;;;;;;;5021662;28;20258;-80
2021/10/20 04:10:19;;;;;;;6.05;5.03;;;;;;;;;;5017168;28;20183;-82
2021/10/20 04:12:46;;;;;;;5.50;5.00;;;;;;;;;;5020173;28;20194;-81
2021/10/20 04:15:14;;;;;;;5.80;5.00;;;;;;;;;;5017268;28;20214;-81
2021/10/20 04:17:40;;;;;;;5.95;5.35;;;;;;;;;;5022258;28;20203;-83
2021/10/20 04:20:08;;;;;;;5.32;4.82;;;;;;;;;;5033175;28;20210;-85
2021/10/20 04:22:34;;;;;;;6.80;5.35;;;;;;;;;;5016365;28;20877;-81
2021/10/20 04:25:00;;;;;;;5.80;5.30;;;;;;;;;;5020794;28;20183;-81
2021/10/20 04:27:26;;;;;;;5.68;5.20;;;;;;;;;;5021254;28;20190;-81
2021/10/20 04:29:54;;;;;;;7.78;5.35;;;;;;;;;;5025295;28;20245;-82
2021/10/20 04:32:20;;;;;;;5.32;4.80;;;;;;;;;;5012869;28;20636;-81
2021/10/20 04:34:46;;;;;;;5.40;4.83;;;;;;;;;;5010736;28;20204;-81
2021/10/20 04:37:12;;;;;;;5.65;5.15;;;;;;;;;;5020939;28;20472;-81
2021/10/20 04:39:38;;;;;;;5.50;5.10;;;;;;;;;;5021652;28;20225;-82
2021/10/20 04:42:04;;;;;;;6.53;5.90;;;;;;;;;;5021681;28;20432;-80
2021/10/20 04:44:30;;;;;;;5.50;5.10;;;;;;;;;;5018497;28;20457;-78
2021/10/20 04:46:56;;;;;;;6.07;5.27;;;;;;;;;;5016469;28;20305;-82
2021/10/20 04:49:22;;;;;;;5.90;5.30;;;;;;;;;;5018375;28;20509;-81
2021/10/20 04:51:48;;;;;;;6.03;5.43;;;;;;;;;;5023506;28;20225;-80
2021/10/20 04:54:14;;;;;;;7.05;4.97;;;;;;;;;;5021257;28;20443;-82
2021/10/20 04:56:40;;;;;;;9.73;5.15;;;;;;;;;;5029527;28;20206;-82
2021/10/20 04:59:06;;;;;;;5.85;5.22;;;;;;;;;;5021131;28;20240;-83
2021/10/20 05:01:32;;;;;;;6.07;5.57;;;;;;;;;;5022094;28;20187;-81
2021/10/20 05:03:58;;;;;;;6.10;5.50;;;;;;;;;;5021429;28;20183;-81
2021/10/20 05:06:24;;;;;;;6.40;5.13;;;;;;;;;;5024710;28;20429;-82
2021/10/20 05:08:50;;;;;;;8.83;5.73;;;;;;;;;;5022324;28;20436;-83
2021/10/20 05:11:16;;;;;;;6.67;5.93;;;;;;;;;;5024787;28;20763;-82
2021/10/20 05:13:42;;;;;;;5.82;5.13;;;;;;;;;;5018840;28;20942;-85
2021/10/20 05:16:08;;;;;;;5.88;5.38;;;;;;;;;;5020747;28;20191;-81
2021/10/20 05:18:34;;;;;;;5.40;4.90;;;;;;;;;;5020449;28;20187;-85
2021/10/20 05:21:00;;;;;;;6.20;5.70;;;;;;;;;;5023972;28;20436;-81
2021/10/20 05:23:26;;;;;;;6.07;5.50;;;;;;;;;;5022963;28;20179;-81
2021/10/20 05:25:52;;;;;;;5.33;4.83;;;;;;;;;;5014447;28;20444;-87
2021/10/20 05:28:18;;;;;;;5.43;4.90;;;;;;;;;;5018459;28;20466;-82
2021/10/20 05:30:44;;;;;;;5.13;4.63;;;;;;;;;;5023394;28;20472;-83
2021/10/20 05:33:10;;;;;;;5.27;4.87;;;;;;;;;;5020889;28;20441;-80
2021/10/20 05:35:36;;;;;;;6.33;5.60;;;;;;;;;;5020820;28;20799;-82
2021/10/20 05:38:02;;;;;;;5.60;5.10;;;;;;;;;;5018687;28;20942;-85
2021/10/20 05:40:28;;;;;;;5.22;4.82;;;;;;;;;;5024147;28;20193;-82
2021/10/20 05:42:54;;;;;;;5.65;5.15;;;;;;;;;;5022567;28;20297;-83
2021/10/20 05:45:20;;;;;;;7.47;5.60;;;;;;;;;;5024087;28;20675;-83
2021/10/20 05:47:47;;;;;;;8.00;5.50;;;;;;;;;;5028326;28;20464;-78
2021/10/20 05:50:14;;;;;;;8.35;5.60;;;;;;;;;;5024364;28;20422;-85
2021/10/20 05:52:40;;;;;;;6.63;6.03;;;;;;;;;;5018293;28;20178;-84
2021/10/20 05:55:07;;;;;;;8.02;5.47;;;;;;;;;;5023514;28;20190;-83
2021/10/20 05:57:35;;;;;;;6.13;5.53;;;;;;;;;;5020641;28;20542;-83
2021/10/20 06:00:01;;;;;;;5.93;5.22;;;;;;;;;;5023158;28;20305;-81
2021/10/20 06:02:27;;;;;;;6.13;5.53;;;;;;;;;;5018514;28;20229;-82
2021/10/20 06:04:53;;;;;;;6.63;5.70;;;;;;;;;;5013504;28;20631;-82
2021/10/20 06:07:19;;;;;;;7.00;5.40;;;;;;;;;;5022691;28;20448;-81
2021/10/20 06:09:45;;;;;;;5.50;5.00;;;;;;;;;;5022836;28;20456;-81
2021/10/20 06:12:11;;;;;;;6.07;5.05;;;;;;;;;;5018906;28;20441;-82
2021/10/20 06:14:37;;;;;;;5.30;4.80;;;;;;;;;;5022838;28;20186;-81
2021/10/20 06:17:03;;;;;;;5.77;5.27;;;;;;;;;;5016068;28;20212;-82
2021/10/20 06:19:29;;;;;;;6.65;5.95;;;;;;;;;;5012982;28;20468;-83
2021/10/20 06:21:57;;;;;;;6.85;6.18;;;;;;;;;;5020199;28;20186;-87
2021/10/20 06:24:23;;;;;;;7.40;6.55;;;;;;;;;;5015735;28;20261;-87
2021/10/20 06:26:49;;;;;;;7.17;6.43;;;;;;;;;;5021168;28;20561;-87
2021/10/20 06:29:16;;;;;;;9.00;6.53;;;;;;;;;;5017420;28;20456;-89
2021/10/20 06:31:42;;;;;;;9.30;6.72;;;;;;;;;;5015156;28;20182;-89
2021/10/20 06:34:08;;;;;;;7.75;6.95;;;;;;;;;;5019608;28;20178;-90
2021/10/20 06:36:36;;;;;;;8.90;7.57;;;;;;;;;;5021863;28;20218;-88
2021/10/20 06:39:02;;;;;;;7.35;6.65;;;;;;;;;;5030268;28;20434;-88
2021/10/20 06:41:28;;;;;;;10.70;7.15;;;;;;;;;;5015873;28;20253;-85
2021/10/20 06:43:54;;;;;;;8.43;6.50;;;;;;;;;;5014747;28;20218;-87
2021/10/20 06:46:20;;;;;;;10.17;7.70;;;;;;;;;;5015533;28;20194;-87
2021/10/20 06:48:47;;;;;;;8.00;7.10;;;;;;;;;;5019341;28;20434;-85
2021/10/20 06:51:13;;;;;;;7.45;6.75;;;;;;;;;;5022263;28;20449;-83
2021/10/20 06:53:39;;;;;;;8.48;7.68;;;;;;;;;;5026852;28;20246;-88
2021/10/20 06:56:07;;;;;;;8.00;7.15;;;;;;;;;;5031003;28;20210;-86
2021/10/20 06:58:34;;;;;;;7.30;6.70;;;;;;;;;;5019161;28;20202;-83
2021/10/20 07:01:00;;;;;;;8.60;7.68;;;;;;;;;;5018328;28;20253;-87
2021/10/20 07:03:26;;;;;;;8.47;6.60;;;;;;;;;;5015896;28;20201;-83
2021/10/20 07:05:52;;;;;;;9.63;7.45;;;;;;;;;;5017510;28;20434;-84
2021/10/20 07:08:18;;;;;;;8.98;8.07;;;;;;;;;;5018323;28;20191;-85
2021/10/20 07:10:44;;;;;;;8.32;7.53;;;;;;;;;;5018228;28;20199;-83
2021/10/20 07:13:10;;;;;;;7.22;6.53;;;;;;;;;;5021397;28;20528;-84
2021/10/20 07:15:37;;;;;;;7.47;6.67;;;;;;;;;;5022690;28;20197;-82
2021/10/20 07:18:03;;;;;;;8.32;7.60;;;;;;;;;;5021249;28;20471;-83
2021/10/20 07:20:29;;;;;;;9.13;7.82;;;;;;;;;;5018634;28;20178;-85
2021/10/20 07:22:55;;;;;;;9.57;8.38;;;;;;;;;;5020994;28;20264;-83
2021/10/20 07:25:21;;;;;;;7.30;6.18;;;;;;;;;;5016779;28;20600;-83
2021/10/20 07:27:48;;;;;;;8.77;7.80;;;;;;;;;;5019225;28;20195;-82
2021/10/20 07:30:14;;;;;;;8.10;7.35;;;;;;;;;;5022505;28;20186;-83
2021/10/20 07:32:41;;;;;;;7.85;6.95;;;;;;;;;;5021850;28;20213;-83
2021/10/20 07:35:07;;;;;;;8.85;7.95;;;;;;;;;;5027359;28;20250;-83
2021/10/20 07:37:33;;;;;;;7.82;7.00;;;;;;;;;;5010490;28;20237;-84
2021/10/20 07:40:02;;;;;;;8.27;7.18;;;;;;;;;;5013798;28;20202;-83
2021/10/20 07:42:28;;;;;;;7.80;7.10;;;;;;;;;;5032131;28;20183;-85
2021/10/20 07:44:54;;;;;;;9.13;8.18;;;;;;;;;;5017501;28;20218;-83
2021/10/20 07:47:24;;;;;;;8.70;7.47;;;;;;;;;;5012501;28;20192;-86
2021/10/20 07:49:50;;;;;;;10.50;7.82;;;;;;;;;;5033405;28;20445;-83
2021/10/20 07:52:17;;;;;;;7.68;6.97;;;;;;;;;;5019516;28;20726;-84
2021/10/20 07:54:43;;;;;;;9.63;7.15;;;;;;;;;;5014312;28;20197;-83
2021/10/20 07:57:10;;;;;;;9.05;7.00;;;;;;;;;;5021668;28;20216;-84
2021/10/20 07:59:36;;;;;;;7.70;7.00;;;;;;;;;;5024027;28;20170;-85
2021/10/20 08:02:03;;;;;;;7.95;6.75;;;;;;;;;;5014706;28;20179;-83
2021/10/20 08:04:29;;;;;;;8.35;6.90;;;;;;;;;;5021338;28;20193;-86
2021/10/20 08:06:55;;;;;;;8.07;7.20;;;;;;;;;;5020623;28;20190;-84
2021/10/20 08:09:21;;;;;;;7.55;6.95;;;;;;;;;;5021457;28;20186;-83
2021/10/20 08:11:47;;;;;;;7.47;6.78;;;;;;;;;;5018075;28;20210;-86
2021/10/20 08:14:13;;;;;;;7.80;7.00;;;;;;;;;;5017793;28;20759;-81
2021/10/20 08:16:39;;;;;;;8.73;7.30;;;;;;;;;;5019884;28;20210;-86
2021/10/20 08:19:05;;;;;;;8.60;7.50;;;;;;;;;;5020924;28;20484;-87
2021/10/20 08:21:31;;;;;;;8.48;7.05;;;;;;;;;;5021037;28;20433;-83
2021/10/20 08:23:57;;;;;;;7.37;6.67;;;;;;;;;;5017739;28;20216;-83
2021/10/20 08:26:23;;;;;;;8.67;7.67;;;;;;;;;;5026324;28;20465;-83
2021/10/20 08:28:49;;;;;;;10.85;8.13;;;;;;;;;;5022997;28;20440;-83
2021/10/20 08:31:15;;;;;;;8.07;7.07;;;;;;;;;;5019983;28;20246;-83
2021/10/20 08:33:42;;;;;;;8.80;7.40;;;;;;;;;;5021722;28;20274;-85
2021/10/20 08:36:08;;;;;;;8.10;6.97;;;;;;;;;;5016965;28;20250;-83
2021/10/20 08:38:34;;;;;;;9.93;8.18;;;;;;;;;;5023762;28;20674;-82
2021/10/20 08:41:01;;;;;;;8.87;8.07;;;;;;;;;;5017191;28;20197;-87
2021/10/20 08:43:27;;;;;;;9.45;8.50;;;;;;;;;;5019338;28;20430;-82
2021/10/20 08:45:53;;;;;;;8.23;7.43;;;;;;;;;;5022492;28;20692;-85
2021/10/20 08:48:22;;;;;;;8.77;7.97;;;;;;;;;;5021717;28;20484;-81
2021/10/20 08:50:52;;;;;;;8.32;7.45;;;;;;;;;;5016935;28;20190;-83
2021/10/20 08:53:20;;;;;;;8.95;7.85;;;;;;;;;;5046110;28;20197;-83
2021/10/20 08:55:47;;;;;;;8.73;7.93;;;;;;;;;;5023751;28;20288;-84
2021/10/20 08:58:13;;;;;;;10.50;7.30;;;;;;;;;;5023587;28;20259;-87
2021/10/20 09:00:39;;;;;;;10.02;7.93;;;;;;;;;;5019838;28;20191;-87
2021/10/20 09:03:05;;;;;;;9.20;8.25;;;;;;;;;;5020644;28;20332;-85
2021/10/20 09:05:31;;;;;;;8.85;8.00;;;;;;;;;;5024459;28;20628;-88
2021/10/20 09:07:57;;;;;;;10.20;8.35;;;;;;;;;;5014320;28;20182;-83
2021/10/20 09:10:24;;;;;;;9.13;8.32;;;;;;;;;;5021276;28;20213;-82
2021/10/20 09:12:51;;;;;;;7.75;6.95;;;;;;;;;;5022625;28;20194;-88
2021/10/20 09:15:21;;;;;;;8.90;7.50;;;;;;;;;;5019196;28;20220;-82
2021/10/20 09:17:49;;;;;;;9.55;7.47;;;;;;;;;;5022876;28;20299;-86
2021/10/20 09:20:33;;;;;;;10.90;9.52;;;;;;;;;;5024682;28;20265;-87
2021/10/20 09:22:59;;;;;;;9.20;8.25;;;;;;;;;;5022064;28;20178;-84
2021/10/20 09:25:26;;;;;;;8.73;7.83;;;;;;;;;;5022982;28;20198;-86
2021/10/20 09:27:53;;;;;;;9.77;8.15;;;;;;;;;;5020804;28;20512;-84
2021/10/20 09:30:20;;;;;;;11.00;9.35;;;;;;;;;;5013477;28;20182;-83
2021/10/20 09:32:48;;;;;;;13.02;8.70;;;;;;;;;;5022755;28;20190;-85
2021/10/20 09:35:15;;;;;;;9.80;8.10;;;;;;;;;;5021740;28;20186;-82
2021/10/20 09:37:41;;;;;;;11.40;8.13;;;;;;;;;;5017001;28;20244;-85
2021/10/20 09:40:09;;;;;;;9.52;8.50;;;;;;;;;;5022012;28;20186;-83
2021/10/20 09:42:44;;;;;;;7.93;7.18;;;;;;;;;;5021750;28;20194;-82
2021/10/20 09:45:10;;;;;;;9.75;8.00;;;;;;;;;;5024016;28;20217;-83
2021/10/20 09:47:38;;;;;;;7.90;7.20;;;;;;;;;;5020356;28;20186;-83
2021/10/20 09:50:05;;;;;;;9.05;8.13;;;;;;;;;;5015817;28;20205;-83
2021/10/20 09:52:43;;;;;;;8.88;7.97;;;;;;;;;;5018876;28;20241;-81
2021/10/20 09:55:12;;;;;;;8.43;7.50;;;;;;;;;;5022844;28;20198;-84
2021/10/20 09:57:38;;;;;;;9.25;7.30;;;;;;;;;;5024890;28;20233;-84
2021/10/20 10:00:04;;;;;;;13.10;8.38;;;;;;;;;;5025581;28;20187;-84
2021/10/20 10:02:31;;;;;;;8.23;6.85;;;;;;;;;;5035995;28;20221;-80
2021/10/20 10:04:57;;;;;;;7.80;6.72;;;;;;;;;;5020065;28;20190;-83
2021/10/20 10:07:23;;;;;;;7.88;7.00;;;;;;;;;;5021213;28;20218;-83
2021/10/20 10:09:49;;;;;;;11.23;7.60;;;;;;;;;;5016473;28;20302;-82
2021/10/20 10:12:18;;;;;;;10.37;6.80;;;;;;;;;;5016651;28;20807;-83
2021/10/20 10:14:58;;;;;;;6.55;5.95;;;;;;;;;;5021196;28;20438;-83
2021/10/20 10:17:24;;;;;;;6.63;6.07;;;;;;;;;;5019099;28;20265;-81
2021/10/20 10:19:50;;;;;;;7.35;6.60;;;;;;;;;;5023242;28;20186;-82
2021/10/20 10:22:34;;;;;;;8.70;6.65;;;;;;;;;;5019228;28;20187;-81
2021/10/20 10:25:07;;;;;;;7.68;6.88;;;;;;;;;;5022841;28;20261;-88
2021/10/20 10:27:35;;;;;;;7.88;6.60;;;;;;;;;;5024229;28;20182;-86
2021/10/20 10:30:05;;;;;;;7.75;5.95;;;;;;;;;;5025721;28;20217;-83
2021/10/20 10:32:37;;;;;;;10.20;6.90;;;;;;;;;;5020677;28;20182;-86
2021/10/20 10:35:07;;;;;;;10.50;6.78;;;;;;;;;;5019518;28;20305;-85
2021/10/20 10:37:34;;;;;;;8.40;6.68;;;;;;;;;;5018373;28;20203;-83
2021/10/20 10:40:01;;;;;;;7.57;6.88;;;;;;;;;;5022989;28;20189;-87
2021/10/20 10:42:34;;;;;;;6.70;6.05;;;;;;;;;;5018761;28;20667;-83
2021/10/20 10:45:12;;;;;;;6.20;5.60;;;;;;;;;;5017223;28;20937;-85
2021/10/20 10:47:54;;;;;;;7.47;6.53;;;;;;;;;;5017200;28;20270;-84
2021/10/20 10:50:20;;;;;;;9.60;6.88;;;;;;;;;;5012154;28;20174;-82
2021/10/20 10:52:46;;;;;;;6.25;5.65;;;;;;;;;;5015779;28;20190;-82
2021/10/20 10:55:14;;;;;;;6.30;5.70;;;;;;;;;;5017227;28;20226;-87
2021/10/20 10:57:40;;;;;;;6.75;5.15;;;;;;;;;;5018595;28;20457;-83
2021/10/20 11:00:19;;;;;;;6.50;5.83;;;;;;;;;;5020388;28;20193;-82
2021/10/20 11:02:52;;;;;;;6.25;5.75;;;;;;;;;;5020623;28;20537;-83
2021/10/20 11:05:29;;;;;;;7.50;6.18;;;;;;;;;;5029023;28;20203;-84
2021/10/20 11:08:02;;;;;;;5.80;5.30;;;;;;;;;;5020128;28;20647;-83
2021/10/20 11:10:28;;;;;;;5.53;4.93;;;;;;;;;;5017064;28;20191;-82
2021/10/20 11:12:55;;;;;;;5.72;5.00;;;;;;;;;;5012751;28;20864;-84
2021/10/20 11:15:22;;;;;;;5.40;4.90;;;;;;;;;;5018372;28;20281;-82
2021/10/20 11:17:48;;;;;;;5.28;4.78;;;;;;;;;;5018575;28;20243;-82
2021/10/20 11:20:17;;;;;;;5.95;4.38;;;;;;;;;;5017888;28;20175;-83
2021/10/20 11:22:46;;;;;;;5.97;4.78;;;;;;;;;;5017607;28;20390;-84
2021/10/20 11:25:13;;;;;;;5.10;4.60;;;;;;;;;;5034890;28;20206;-86
2021/10/20 11:27:38;;;;;;;4.78;4.38;;;;;;;;;;5018986;28;20194;-85
2021/10/20 11:30:06;;;;;;;5.10;4.70;;;;;;;;;;5016123;28;20184;-83
2021/10/20 11:32:33;;;;;;;4.50;4.10;;;;;;;;;;5022033;28;20477;-80
2021/10/20 11:34:59;;;;;;;5.57;4.60;;;;;;;;;;5016473;28;20174;-83
2021/10/20 11:37:26;;;;;;;4.37;3.87;;;;;;;;;;5027065;28;20641;-80
2021/10/20 11:39:55;;;;;;;5.03;4.35;;;;;;;;;;5018452;28;20527;-82
2021/10/20 11:42:21;;;;;;;7.43;4.65;;;;;;;;;;5008508;28;20273;-85
2021/10/20 11:44:48;;;;;;;4.70;4.10;;;;;;;;;;5017864;28;20234;-82
2021/10/20 11:47:15;;;;;;;6.45;4.15;;;;;;;;;;5016609;28;20214;-89
2021/10/20 11:49:52;;;;;;;5.05;4.45;;;;;;;;;;5019617;28;20246;-83
2021/10/20 11:52:20;;;;;;;5.38;3.50;;;;;;;;;;5015581;28;20191;-83
2021/10/20 11:54:46;;;;;;;4.65;4.07;;;;;;;;;;5021539;28;20202;-86
2021/10/20 11:57:15;;;;;;;6.93;4.28;;;;;;;;;;5016754;28;20298;-85
2021/10/20 11:59:41;;;;;;;4.97;3.85;;;;;;;;;;5025567;28;20613;-84
2021/10/20 12:02:08;;;;;;;7.13;3.97;;;;;;;;;;5024798;28;20202;-85
2021/10/20 12:04:34;;;;;;;5.40;4.28;;;;;;;;;;5029679;28;20192;-84
2021/10/20 12:07:02;;;;;;;9.10;4.65;;;;;;;;;;5022755;28;20187;-85
2021/10/20 12:09:29;;;;;;;4.32;3.70;;;;;;;;;;5022167;28;20185;-85
2021/10/20 12:11:55;;;;;;;4.85;3.40;;;;;;;;;;5021951;28;20203;-82
2021/10/20 12:14:22;;;;;;;9.38;3.67;;;;;;;;;;5024765;28;20328;-82
2021/10/20 12:16:49;;;;;;;6.55;4.07;;;;;;;;;;5017938;28;20205;-83
2021/10/20 12:19:16;;;;;;;4.28;3.25;;;;;;;;;;5022782;28;20184;-85
2021/10/20 12:21:43;;;;;;;7.45;3.97;;;;;;;;;;5022137;28;20217;-83
2021/10/20 12:24:15;;;;;;;3.90;3.50;;;;;;;;;;5019751;28;20193;-88
2021/10/20 12:26:41;;;;;;;7.13;3.53;;;;;;;;;;5025645;28;20194;-84
2021/10/20 12:29:08;;;;;;;6.47;4.20;;;;;;;;;;5025412;28;20264;-86
2021/10/20 12:31:35;;;;;;;3.50;2.72;;;;;;;;;;5020335;28;20186;-81
2021/10/20 12:34:02;;;;;;;6.80;3.45;;;;;;;;;;5022010;28;20180;-84
2021/10/20 12:36:28;;;;;;;6.03;3.10;;;;;;;;;;5022954;28;20263;-80
2021/10/20 12:38:56;;;;;;;8.05;3.78;;;;;;;;;;5023487;28;20195;-90
2021/10/20 12:41:29;;;;;;;9.60;3.40;;;;;;;;;;5025029;28;20206;-85
2021/10/20 12:43:56;;;;;;;6.65;3.05;;;;;;;;;;5018135;28;20247;-83
2021/10/20 12:46:23;;;;;;;5.68;3.28;;;;;;;;;;5017002;28;20185;-86
2021/10/20 12:48:50;;;;;;;3.38;2.40;;;;;;;;;;5019040;28;20186;-84
2021/10/20 12:51:17;;;;;;;3.28;2.97;;;;;;;;;;5016845;28;20189;-83
2021/10/20 12:53:44;;;;;;;5.25;2.90;;;;;;;;;;5022463;28;20188;-84
2021/10/20 12:56:11;;;;;;;3.42;3.13;;;;;;;;;;5018079;28;20789;-82
2021/10/20 12:58:37;;;;;;;13.10;3.22;;;;;;;;;;5017646;28;20217;-84
2021/10/20 13:01:04;;;;;;;4.85;3.40;;;;;;;;;;5021784;28;20188;-81
2021/10/20 13:03:30;;;;;;;5.53;3.58;;;;;;;;;;5014767;28;20216;-84
2021/10/20 13:05:56;;;;;;;5.60;3.08;;;;;;;;;;5024731;28;20264;-87
2021/10/20 13:08:23;;;;;;;6.10;3.80;;;;;;;;;;5029777;28;20263;-86
2021/10/20 13:10:50;;;;;;;5.20;4.05;;;;;;;;;;5020010;28;20854;-86
2021/10/20 13:13:16;;;;;;;3.50;3.20;;;;;;;;;;5012782;28;20221;-85
2021/10/20 13:15:42;;;;;;;7.68;3.38;;;;;;;;;;5018823;28;20250;-84
2021/10/20 13:18:11;;;;;;;3.80;3.35;;;;;;;;;;5031355;28;20204;-85
2021/10/20 13:20:37;;;;;;;7.05;3.20;;;;;;;;;;5010802;28;20182;-82
2021/10/20 13:23:06;;;;;;;6.83;3.60;;;;;;;;;;5015942;28;20182;-84
2021/10/20 13:25:33;;;;;;;4.00;3.10;;;;;;;;;;5017754;28;21055;-86
2021/10/20 13:28:00;;;;;;;3.63;2.72;;;;;;;;;;5023258;28;20233;-77
2021/10/20 13:30:26;;;;;;;4.13;2.85;;;;;;;;;;5025069;28;20200;-85
2021/10/20 13:32:52;;;;;;;3.88;3.13;;;;;;;;;;5028003;28;20199;-84
2021/10/20 13:35:18;;;;;;;6.45;4.20;;;;;;;;;;5020447;28;20688;-83
2021/10/20 13:37:44;;;;;;;7.30;3.47;;;;;;;;;;5019753;28;20208;-83
2021/10/20 13:40:10;;;;;;;7.82;4.10;;;;;;;;;;5016783;28;20417;-84
2021/10/20 13:42:37;;;;;;;5.10;3.40;;;;;;;;;;5023947;28;20262;-84
2021/10/20 13:45:06;;;;;;;6.38;4.32;;;;;;;;;;5034695;28;20314;-83
2021/10/20 13:47:32;;;;;;;5.43;3.50;;;;;;;;;;5021268;28;20176;-84
2021/10/20 13:49:58;;;;;;;5.05;3.97;;;;;;;;;;5019857;28;20219;-85
2021/10/20 13:52:25;;;;;;;5.30;3.97;;;;;;;;;;5023763;28;20215;-85
2021/10/20 13:54:51;;;;;;;7.20;3.83;;;;;;;;;;5022534;28;20413;-85
2021/10/20 13:57:17;;;;;;;6.05;3.85;;;;;;;;;;5019189;28;20259;-86
2021/10/20 13:59:43;;;;;;;5.63;3.67;;;;;;;;;;5016687;28;20663;-83
2021/10/20 14:02:11;;;;;;;6.80;4.10;;;;;;;;;;5020597;28;20398;-86
2021/10/20 14:04:38;;;;;;;4.30;3.90;;;;;;;;;;5018807;28;20424;-83
2021/10/20 14:07:07;;;;;;;6.75;3.90;;;;;;;;;;5021104;28;20179;-84
2021/10/20 14:09:33;;;;;;;7.00;3.83;;;;;;;;;;5019992;28;20566;-84
2021/10/20 14:11:59;;;;;;;7.03;5.20;;;;;;;;;;5022878;28;20681;-83
2021/10/20 14:14:25;;;;;;;9.60;4.40;;;;;;;;;;5020126;28;20180;-81
2021/10/20 14:16:52;;;;;;;7.15;3.90;;;;;;;;;;5014400;28;20253;-81
2021/10/20 14:19:18;;;;;;;3.95;3.53;;;;;;;;;;5018911;28;20188;-83
2021/10/20 14:21:44;;;;;;;7.55;3.80;;;;;;;;;;5022259;28;20192;-82
2021/10/20 14:24:11;;;;;;;6.65;3.55;;;;;;;;;;5019608;28;20540;-82
2021/10/20 14:26:37;;;;;;;7.85;3.78;;;;;;;;;;5018567;28;20179;-84
2021/10/20 14:29:04;;;;;;;5.47;3.80;;;;;;;;;;5014861;28;20194;-81
2021/10/20 14:31:37;;;;;;;7.00;3.58;;;;;;;;;;5018555;28;20184;-81
2021/10/20 14:34:03;;;;;;;9.57;3.92;;;;;;;;;;5019555;28;20182;-86
2021/10/20 14:36:29;;;;;;;9.73;3.75;;;;;;;;;;5016469;28;20184;-82
2021/10/20 14:38:55;;;;;;;8.82;3.88;;;;;;;;;;5017950;28;25473;-85
2021/10/20 14:41:21;;;;;;;4.40;3.50;;;;;;;;;;5019642;28;20216;-83